Tasman — ZDKI2 — position and weather

sailwx.info

Track history (hours):
 
Tides and Currents Weather Stations Pressure Air Temp Water Temp Dewpoint Dewpoint Depression Visibility Wind Speed Wind Dir Waves Ship Positions

Tasman

Last reported at 2016-Sep-26 20:33 UTC. Time now 2016-Sep-29 11:52 UTC.
Position N 55°19' E 014°33'.

Length 90 m; draft 4 m.

Type: Ship. MMSI: 23617000.

Date/timePositionNaut miles runAvg speedWind from/ knotsBaromVisibWave heightAir tempDewpointWater temp
2016-Sep-26 20:33N 55°19' E 014°33'1312.5
2016-Sep-26 19:33N 55°11' E 014°16'4912.4
2016-Sep-26 15:33N 55°16' E 012°50'18 9.2
2016-Sep-26 13:33N 55°34' E 012°49'7 3.3
2016-Sep-26 11:33N 55°37' E 012°59'0 0.0
2016-Sep-26 08:33N 55°37' E 012°59'1 0.1
2016-Sep-26 02:33N 55°37' E 013°00'0 0.0
2016-Sep-26 01:33N 55°37' E 013°00'0 0.0
2016-Sep-26 00:33N 55°37' E 013°00'0 0.0
2016-Sep-25 21:33N 55°37' E 013°00'0 0.0
2016-Sep-25 17:33N 55°37' E 013°00'0 0.0
2016-Sep-25 16:33N 55°37' E 013°00'0 0.0
2016-Sep-25 15:33N 55°37' E 013°00'0 0.0
2016-Sep-25 14:33N 55°37' E 013°00'0 0.0
2016-Sep-25 12:33N 55°37' E 013°00'0 0.0
2016-Sep-25 11:33N 55°37' E 013°00'0 0.0
2016-Sep-25 10:33N 55°37' E 013°00'0 0.0
2016-Sep-25 09:33N 55°37' E 013°00'0 0.1
2016-Sep-25 07:33N 55°37' E 012°60'0 0.0
2016-Sep-25 04:33N 55°37' E 012°60'0 0.0
2016-Sep-25 00:33N 55°37' E 012°60'0 0.0
2016-Sep-24 22:33N 55°37' E 012°60'0 0.0
2016-Sep-24 21:33N 55°37' E 012°60'0 0.0
2016-Sep-24 19:33N 55°37' E 012°60'0 0.0
2016-Sep-24 18:33N 55°37' E 012°60'0 0.0
2016-Sep-24 17:33N 55°37' E 012°60'0 0.0
2016-Sep-24 16:33N 55°37' E 012°60'0 0.0
2016-Sep-24 14:33N 55°37' E 012°60'0 0.0
2016-Sep-24 12:33N 55°37' E 012°60'0 0.0
2016-Sep-24 10:33N 55°37' E 012°60'0 0.0
2016-Sep-24 09:33N 55°37' E 012°60'0 0.0
2016-Sep-24 03:33N 55°37' E 012°60'0 0.0
2016-Sep-24 02:33N 55°37' E 012°60'0 0.0
2016-Sep-24 01:33N 55°37' E 012°60'0 0.0
2016-Sep-24 00:33N 55°37' E 012°60'0 0.0
2016-Sep-23 19:33N 55°37' E 012°60'1 0.3
2016-Sep-23 17:33N 55°37' E 012°59'0 0.0
2016-Sep-23 16:33N 55°37' E 012°59'0 0.0
2016-Sep-23 15:33N 55°37' E 012°59'0 0.0
2016-Sep-23 13:33N 55°37' E 012°59'0 0.0
2016-Sep-23 09:33N 55°37' E 012°59'0 0.0
2016-Sep-23 06:34N 55°37' E 012°59'0 0.0
2016-Sep-23 04:33N 55°37' E 012°59'0 0.0
2016-Sep-23 03:33N 55°37' E 012°59'0 0.0
2016-Sep-23 02:33N 55°37' E 012°59'0 0.0
2016-Sep-23 01:33N 55°37' E 012°59'0 0.0
2016-Sep-23 00:33N 55°37' E 012°59'0 0.0
2016-Sep-22 23:33N 55°37' E 012°59'0 0.0
2016-Sep-22 20:33N 55°37' E 012°59'0 0.0
2016-Sep-22 12:34N 55°37' E 012°59'0 0.0
2016-Sep-22 04:33N 55°37' E 012°59'1 0.5
2016-Sep-22 03:33N 55°37' E 012°59'20 6.8
2016-Sep-22 00:33N 55°54' E 012°39'1110.5
2016-Sep-21 23:33N 56°04' E 012°36'1111.2
2016-Sep-21 22:33N 56°11' E 012°20'3110.4
2016-Sep-21 19:34N 56°39' E 011°53'276 8.4
2016-Sep-20 10:33N 54°02' E 005°13'17911.9
2016-Sep-19 19:33N 51°35' E 002°25'1211.7
2016-Sep-19 18:33N 51°26' E 002°13'2512.4
2016-Sep-19 16:33N 51°07' E 001°48'9313.3
2016-Sep-19 09:33N 50°17' W 000°16'16311.5
2016-Sep-18 19:19N 49°19' W 004°12'  
Track history (hours):
 
Tides and Currents Weather Stations Pressure Air Temp Water Temp Dewpoint Dewpoint Depression Visibility Wind Speed Wind Dir Waves Ship Positions

Tasman

Last reported at 2016-Sep-26 20:33 UTC. Time now 2016-Sep-29 11:52 UTC.
Position N 55°19' E 014°33'.

Length 90 m; draft 4 m.

Type: Ship. MMSI: 23617000.

Date/timePositionNaut miles runAvg speedWind from/ knotsBaromVisibWave heightAir tempDewpointWater temp
2016-Sep-26 20:33N 55°19' E 014°33'1312.5
2016-Sep-26 19:33N 55°11' E 014°16'4912.4
2016-Sep-26 15:33N 55°16' E 012°50'18 9.2
2016-Sep-26 13:33N 55°34' E 012°49'7 3.3
2016-Sep-26 11:33N 55°37' E 012°59'0 0.0
2016-Sep-26 08:33N 55°37' E 012°59'1 0.1
2016-Sep-26 02:33N 55°37' E 013°00'0 0.0
2016-Sep-26 01:33N 55°37' E 013°00'0 0.0
2016-Sep-26 00:33N 55°37' E 013°00'0 0.0
2016-Sep-25 21:33N 55°37' E 013°00'0 0.0
2016-Sep-25 17:33N 55°37' E 013°00'0 0.0
2016-Sep-25 16:33N 55°37' E 013°00'0 0.0
2016-Sep-25 15:33N 55°37' E 013°00'0 0.0
2016-Sep-25 14:33N 55°37' E 013°00'0 0.0
2016-Sep-25 12:33N 55°37' E 013°00'0 0.0
2016-Sep-25 11:33N 55°37' E 013°00'0 0.0
2016-Sep-25 10:33N 55°37' E 013°00'0 0.0
2016-Sep-25 09:33N 55°37' E 013°00'0 0.1
2016-Sep-25 07:33N 55°37' E 012°60'0 0.0
2016-Sep-25 04:33N 55°37' E 012°60'0 0.0
2016-Sep-25 00:33N 55°37' E 012°60'0 0.0
2016-Sep-24 22:33N 55°37' E 012°60'0 0.0
2016-Sep-24 21:33N 55°37' E 012°60'0 0.0
2016-Sep-24 19:33N 55°37' E 012°60'0 0.0
2016-Sep-24 18:33N 55°37' E 012°60'0 0.0
2016-Sep-24 17:33N 55°37' E 012°60'0 0.0
2016-Sep-24 16:33N 55°37' E 012°60'0 0.0
2016-Sep-24 14:33N 55°37' E 012°60'0 0.0
2016-Sep-24 12:33N 55°37' E 012°60'0 0.0
2016-Sep-24 10:33N 55°37' E 012°60'0 0.0
2016-Sep-24 09:33N 55°37' E 012°60'0 0.0
2016-Sep-24 03:33N 55°37' E 012°60'0 0.0
2016-Sep-24 02:33N 55°37' E 012°60'0 0.0
2016-Sep-24 01:33N 55°37' E 012°60'0 0.0
2016-Sep-24 00:33N 55°37' E 012°60'0 0.0
2016-Sep-23 19:33N 55°37' E 012°60'1 0.3
2016-Sep-23 17:33N 55°37' E 012°59'0 0.0
2016-Sep-23 16:33N 55°37' E 012°59'0 0.0
2016-Sep-23 15:33N 55°37' E 012°59'0 0.0
2016-Sep-23 13:33N 55°37' E 012°59'0 0.0
2016-Sep-23 09:33N 55°37' E 012°59'0 0.0
2016-Sep-23 06:34N 55°37' E 012°59'0 0.0
2016-Sep-23 04:33N 55°37' E 012°59'0 0.0
2016-Sep-23 03:33N 55°37' E 012°59'0 0.0
2016-Sep-23 02:33N 55°37' E 012°59'0 0.0
2016-Sep-23 01:33N 55°37' E 012°59'0 0.0
2016-Sep-23 00:33N 55°37' E 012°59'0 0.0
2016-Sep-22 23:33N 55°37' E 012°59'0 0.0
2016-Sep-22 20:33N 55°37' E 012°59'0 0.0
2016-Sep-22 12:34N 55°37' E 012°59'0 0.0
2016-Sep-22 04:33N 55°37' E 012°59'1 0.5
2016-Sep-22 03:33N 55°37' E 012°59'20 6.8
2016-Sep-22 00:33N 55°54' E 012°39'1110.5
2016-Sep-21 23:33N 56°04' E 012°36'1111.2
2016-Sep-21 22:33N 56°11' E 012°20'3110.4
2016-Sep-21 19:34N 56°39' E 011°53'276 8.4
2016-Sep-20 10:33N 54°02' E 005°13'17911.9
2016-Sep-19 19:33N 51°35' E 002°25'1211.7
2016-Sep-19 18:33N 51°26' E 002°13'2512.4
2016-Sep-19 16:33N 51°07' E 001°48'9313.3
2016-Sep-19 09:33N 50°17' W 000°16'16311.5
2016-Sep-18 19:19N 49°19' W 004°12'  

Dump ship's entire track history